sensor_id;sensor_type;location;lat;lon;timestamp;temperature;humidity
18898;DHT22;9581;49.484;8.556;2022-10-15T00:00:41;15.40;99.90
18898;DHT22;9581;49.484;8.556;2022-10-15T00:03:08;15.50;99.90
18898;DHT22;9581;49.484;8.556;2022-10-15T00:05:35;15.40;99.90
18898;DHT22;9581;49.484;8.556;2022-10-15T00:08:03;15.40;99.90
18898;DHT22;9581;49.484;8.556;2022-10-15T00:10:31;15.50;99.90
18898;DHT22;9581;49.484;8.556;2022-10-15T00:12:59;15.40;99.90
18898;DHT22;9581;49.484;8.556;2022-10-15T00:15:26;15.40;99.90
18898;DHT22;9581;49.484;8.556;2022-10-15T00:17:53;15.40;99.90
18898;DHT22;9581;49.484;8.556;2022-10-15T00:20:19;15.40;99.90
18898;DHT22;9581;49.484;8.556;2022-10-15T00:22:48;15.30;99.90
18898;DHT22;9581;49.484;8.556;2022-10-15T00:25:15;15.30;99.90
18898;DHT22;9581;49.484;8.556;2022-10-15T00:27:44;15.40;99.90
18898;DHT22;9581;49.484;8.556;2022-10-15T00:30:11;15.40;99.90
18898;DHT22;9581;49.484;8.556;2022-10-15T00:32:38;15.40;99.90
18898;DHT22;9581;49.484;8.556;2022-10-15T00:35:06;15.50;99.90
18898;DHT22;9581;49.484;8.556;2022-10-15T00:37:33;15.40;99.90
18898;DHT22;9581;49.484;8.556;2022-10-15T00:40:00;15.40;99.90
18898;DHT22;9581;49.484;8.556;2022-10-15T00:42:27;15.40;99.90
18898;DHT22;9581;49.484;8.556;2022-10-15T00:44:57;15.50;99.90
18898;DHT22;9581;49.484;8.556;2022-10-15T00:47:27;15.50;99.90
18898;DHT22;9581;49.484;8.556;2022-10-15T00:49:58;15.50;99.90
18898;DHT22;9581;49.484;8.556;2022-10-15T00:52:31;15.50;99.90
18898;DHT22;9581;49.484;8.556;2022-10-15T00:55:03;15.50;99.90
18898;DHT22;9581;49.484;8.556;2022-10-15T00:57:32;15.50;99.90
18898;DHT22;9581;49.484;8.556;2022-10-15T01:00:06;15.50;99.90
18898;DHT22;9581;49.484;8.556;2022-10-15T01:02:33;15.50;99.90
18898;DHT22;9581;49.484;8.556;2022-10-15T01:05:00;15.60;99.90
18898;DHT22;9581;49.484;8.556;2022-10-15T01:07:29;15.60;99.90
18898;DHT22;9581;49.484;8.556;2022-10-15T01:09:56;15.60;99.90
18898;DHT22;9581;49.484;8.556;2022-10-15T01:12:31;15.60;99.90
18898;DHT22;9581;49.484;8.556;2022-10-15T01:15:10;15.60;99.90
18898;DHT22;9581;49.484;8.556;2022-10-15T01:17:44;15.60;99.90
18898;DHT22;9581;49.484;8.556;2022-10-15T01:20:36;15.60;99.90
18898;DHT22;9581;49.484;8.556;2022-10-15T01:26:12;15.60;99.90
18898;DHT22;9581;49.484;8.556;2022-10-15T01:28:50;15.60;99.90
18898;DHT22;9581;49.484;8.556;2022-10-15T01:31:24;15.60;99.90
18898;DHT22;9581;49.484;8.556;2022-10-15T01:33:59;15.60;99.90
18898;DHT22;9581;49.484;8.556;2022-10-15T01:36:33;15.60;99.90
18898;DHT22;9581;49.484;8.556;2022-10-15T01:39:07;15.50;99.90
18898;DHT22;9581;49.484;8.556;2022-10-15T01:41:40;15.50;99.90
18898;DHT22;9581;49.484;8.556;2022-10-15T01:44:10;15.60;99.90
18898;DHT22;9581;49.484;8.556;2022-10-15T01:46:43;15.50;99.90
18898;DHT22;9581;49.484;8.556;2022-10-15T01:49:16;15.50;99.90
18898;DHT22;9581;49.484;8.556;2022-10-15T01:51:47;15.50;99.90
18898;DHT22;9581;49.484;8.556;2022-10-15T01:54:17;15.60;99.90
18898;DHT22;9581;49.484;8.556;2022-10-15T01:56:47;15.60;99.90
18898;DHT22;9581;49.484;8.556;2022-10-15T01:59:21;15.60;99.90
18898;DHT22;9581;49.484;8.556;2022-10-15T02:01:49;15.70;99.90
18898;DHT22;9581;49.484;8.556;2022-10-15T02:04:18;15.60;99.90
18898;DHT22;9581;49.484;8.556;2022-10-15T02:06:48;15.70;99.90
18898;DHT22;9581;49.484;8.556;2022-10-15T02:09:22;15.60;99.90
18898;DHT22;9581;49.484;8.556;2022-10-15T02:11:59;15.60;99.90
18898;DHT22;9581;49.484;8.556;2022-10-15T02:14:32;15.60;99.90
18898;DHT22;9581;49.484;8.556;2022-10-15T02:17:07;15.60;99.90
18898;DHT22;9581;49.484;8.556;2022-10-15T02:19:40;15.60;99.90
18898;DHT22;9581;49.484;8.556;2022-10-15T02:22:13;15.60;99.90
18898;DHT22;9581;49.484;8.556;2022-10-15T02:24:43;15.60;99.90
18898;DHT22;9581;49.484;8.556;2022-10-15T02:27:14;15.70;99.90
18898;DHT22;9581;49.484;8.556;2022-10-15T02:29:43;15.60;99.90
18898;DHT22;9581;49.484;8.556;2022-10-15T02:32:16;15.70;99.90
18898;DHT22;9581;49.484;8.556;2022-10-15T02:34:45;15.70;99.90
18898;DHT22;9581;49.484;8.556;2022-10-15T02:37:13;15.70;99.90
18898;DHT22;9581;49.484;8.556;2022-10-15T02:39:40;15.70;99.90
18898;DHT22;9581;49.484;8.556;2022-10-15T02:42:07;15.60;99.90
18898;DHT22;9581;49.484;8.556;2022-10-15T02:44:34;15.60;99.90
18898;DHT22;9581;49.484;8.556;2022-10-15T02:47:01;15.60;99.90
18898;DHT22;9581;49.484;8.556;2022-10-15T02:49:29;15.60;99.90
18898;DHT22;9581;49.484;8.556;2022-10-15T02:51:56;15.60;99.90
18898;DHT22;9581;49.484;8.556;2022-10-15T02:54:23;15.60;99.90
18898;DHT22;9581;49.484;8.556;2022-10-15T02:56:50;15.70;99.90
18898;DHT22;9581;49.484;8.556;2022-10-15T02:59:17;15.70;99.90
18898;DHT22;9581;49.484;8.556;2022-10-15T03:01:44;15.70;99.90
18898;DHT22;9581;49.484;8.556;2022-10-15T03:04:11;15.70;99.90
18898;DHT22;9581;49.484;8.556;2022-10-15T03:06:39;15.70;99.90
18898;DHT22;9581;49.484;8.556;2022-10-15T03:09:06;15.60;99.90
18898;DHT22;9581;49.484;8.556;2022-10-15T03:11:33;15.70;99.90
18898;DHT22;9581;49.484;8.556;2022-10-15T03:13:59;15.70;99.90
18898;DHT22;9581;49.484;8.556;2022-10-15T03:16:26;15.80;99.90
18898;DHT22;9581;49.484;8.556;2022-10-15T03:18:53;15.70;99.90
18898;DHT22;9581;49.484;8.556;2022-10-15T03:21:20;15.80;99.90
18898;DHT22;9581;49.484;8.556;2022-10-15T03:23:48;15.80;99.90
18898;DHT22;9581;49.484;8.556;2022-10-15T03:26:15;15.80;99.90
18898;DHT22;9581;49.484;8.556;2022-10-15T03:28:42;15.80;99.90
18898;DHT22;9581;49.484;8.556;2022-10-15T03:31:08;15.80;99.90
18898;DHT22;9581;49.484;8.556;2022-10-15T03:33:35;15.80;99.90
18898;DHT22;9581;49.484;8.556;2022-10-15T03:36:02;15.80;99.90
18898;DHT22;9581;49.484;8.556;2022-10-15T03:38:29;15.70;99.90
18898;DHT22;9581;49.484;8.556;2022-10-15T03:40:57;15.70;99.90
18898;DHT22;9581;49.484;8.556;2022-10-15T03:43:24;15.80;99.90
18898;DHT22;9581;49.484;8.556;2022-10-15T03:45:51;15.80;99.90
18898;DHT22;9581;49.484;8.556;2022-10-15T03:48:18;15.80;99.90
18898;DHT22;9581;49.484;8.556;2022-10-15T03:50:45;15.80;99.90
18898;DHT22;9581;49.484;8.556;2022-10-15T03:53:12;15.80;99.90
18898;DHT22;9581;49.484;8.556;2022-10-15T03:55:39;15.70;99.90
18898;DHT22;9581;49.484;8.556;2022-10-15T03:58:07;15.80;99.90
18898;DHT22;9581;49.484;8.556;2022-10-15T04:00:34;15.80;99.90
18898;DHT22;9581;49.484;8.556;2022-10-15T04:03:01;15.80;99.90
18898;DHT22;9581;49.484;8.556;2022-10-15T04:05:27;15.80;99.90
18898;DHT22;9581;49.484;8.556;2022-10-15T04:07:55;15.80;99.90
18898;DHT22;9581;49.484;8.556;2022-10-15T04:10:22;15.90;99.90
18898;DHT22;9581;49.484;8.556;2022-10-15T04:12:49;15.80;99.90
18898;DHT22;9581;49.484;8.556;2022-10-15T04:15:18;15.80;99.90
18898;DHT22;9581;49.484;8.556;2022-10-15T04:17:44;15.80;99.90
18898;DHT22;9581;49.484;8.556;2022-10-15T04:20:11;15.80;99.90
18898;DHT22;9581;49.484;8.556;2022-10-15T04:22:38;15.80;99.90
18898;DHT22;9581;49.484;8.556;2022-10-15T04:25:06;15.80;99.90
18898;DHT22;9581;49.484;8.556;2022-10-15T04:27:33;15.80;99.90
18898;DHT22;9581;49.484;8.556;2022-10-15T04:29:59;15.80;99.90
18898;DHT22;9581;49.484;8.556;2022-10-15T04:32:28;15.90;99.90
18898;DHT22;9581;49.484;8.556;2022-10-15T04:34:54;15.90;99.90
18898;DHT22;9581;49.484;8.556;2022-10-15T04:37:21;15.90;99.90
18898;DHT22;9581;49.484;8.556;2022-10-15T04:39:48;15.90;99.90
18898;DHT22;9581;49.484;8.556;2022-10-15T04:42:15;15.80;99.90
18898;DHT22;9581;49.484;8.556;2022-10-15T04:44:41;15.80;99.90
18898;DHT22;9581;49.484;8.556;2022-10-15T04:47:08;15.90;99.90
18898;DHT22;9581;49.484;8.556;2022-10-15T04:49:36;15.90;99.90
18898;DHT22;9581;49.484;8.556;2022-10-15T04:52:03;15.90;99.90
18898;DHT22;9581;49.484;8.556;2022-10-15T04:54:30;15.90;99.90
18898;DHT22;9581;49.484;8.556;2022-10-15T04:56:57;15.90;99.90
18898;DHT22;9581;49.484;8.556;2022-10-15T04:59:24;15.90;99.90
18898;DHT22;9581;49.484;8.556;2022-10-15T05:01:51;15.90;99.90
18898;DHT22;9581;49.484;8.556;2022-10-15T05:04:18;15.90;99.90
18898;DHT22;9581;49.484;8.556;2022-10-15T05:06:46;16.00;99.90
18898;DHT22;9581;49.484;8.556;2022-10-15T05:09:13;15.90;99.90
18898;DHT22;9581;49.484;8.556;2022-10-15T05:11:40;15.90;99.90
18898;DHT22;9581;49.484;8.556;2022-10-15T05:14:07;15.90;99.90
18898;DHT22;9581;49.484;8.556;2022-10-15T05:16:34;16.00;99.90
18898;DHT22;9581;49.484;8.556;2022-10-15T05:19:03;16.00;99.90
18898;DHT22;9581;49.484;8.556;2022-10-15T05:21:31;16.00;99.90
18898;DHT22;9581;49.484;8.556;2022-10-15T05:23:59;16.10;99.90
18898;DHT22;9581;49.484;8.556;2022-10-15T05:26:28;16.10;99.90
18898;DHT22;9581;49.484;8.556;2022-10-15T05:28:55;16.10;99.90
18898;DHT22;9581;49.484;8.556;2022-10-15T05:31:25;16.10;99.90
18898;DHT22;9581;49.484;8.556;2022-10-15T05:33:52;16.10;99.90
18898;DHT22;9581;49.484;8.556;2022-10-15T05:36:21;16.00;99.90
18898;DHT22;9581;49.484;8.556;2022-10-15T05:38:50;15.90;99.90
18898;DHT22;9581;49.484;8.556;2022-10-15T05:41:19;16.00;99.90
18898;DHT22;9581;49.484;8.556;2022-10-15T05:43:46;16.00;99.90
18898;DHT22;9581;49.484;8.556;2022-10-15T05:46:13;16.00;99.90
18898;DHT22;9581;49.484;8.556;2022-10-15T05:48:40;16.00;99.90
18898;DHT22;9581;49.484;8.556;2022-10-15T05:51:10;16.10;99.90
18898;DHT22;9581;49.484;8.556;2022-10-15T05:53:37;16.00;99.90
18898;DHT22;9581;49.484;8.556;2022-10-15T05:56:05;16.10;99.90
18898;DHT22;9581;49.484;8.556;2022-10-15T05:58:35;16.00;99.90
18898;DHT22;9581;49.484;8.556;2022-10-15T06:01:04;16.10;99.90
18898;DHT22;9581;49.484;8.556;2022-10-15T06:03:31;16.10;99.90
18898;DHT22;9581;49.484;8.556;2022-10-15T06:05:58;16.10;99.90
18898;DHT22;9581;49.484;8.556;2022-10-15T06:08:26;16.10;99.90
18898;DHT22;9581;49.484;8.556;2022-10-15T06:10:53;16.10;99.90
18898;DHT22;9581;49.484;8.556;2022-10-15T06:13:20;16.10;99.90
18898;DHT22;9581;49.484;8.556;2022-10-15T06:15:49;16.10;99.90
18898;DHT22;9581;49.484;8.556;2022-10-15T06:18:15;16.10;99.90
18898;DHT22;9581;49.484;8.556;2022-10-15T06:20:42;16.10;99.90
18898;DHT22;9581;49.484;8.556;2022-10-15T06:23:10;16.20;99.90
18898;DHT22;9581;49.484;8.556;2022-10-15T06:25:37;16.20;99.90
18898;DHT22;9581;49.484;8.556;2022-10-15T06:28:05;16.20;99.90
18898;DHT22;9581;49.484;8.556;2022-10-15T06:30:34;16.20;99.90
18898;DHT22;9581;49.484;8.556;2022-10-15T06:33:02;16.20;99.90
18898;DHT22;9581;49.484;8.556;2022-10-15T06:35:29;16.10;99.90
18898;DHT22;9581;49.484;8.556;2022-10-15T06:37:59;16.10;99.90
18898;DHT22;9581;49.484;8.556;2022-10-15T06:40:25;16.10;99.90
18898;DHT22;9581;49.484;8.556;2022-10-15T06:42:52;16.10;99.90
18898;DHT22;9581;49.484;8.556;2022-10-15T06:45:19;16.20;99.90
18898;DHT22;9581;49.484;8.556;2022-10-15T06:47:46;16.20;99.90
18898;DHT22;9581;49.484;8.556;2022-10-15T06:50:14;16.30;99.90
18898;DHT22;9581;49.484;8.556;2022-10-15T06:52:41;16.30;99.90
18898;DHT22;9581;49.484;8.556;2022-10-15T06:55:09;16.30;99.90
18898;DHT22;9581;49.484;8.556;2022-10-15T06:57:35;16.40;99.90
18898;DHT22;9581;49.484;8.556;2022-10-15T07:00:03;16.40;99.90
18898;DHT22;9581;49.484;8.556;2022-10-15T07:02:30;16.30;99.90
18898;DHT22;9581;49.484;8.556;2022-10-15T07:04:57;16.40;99.90
18898;DHT22;9581;49.484;8.556;2022-10-15T07:07:25;16.40;99.90
18898;DHT22;9581;49.484;8.556;2022-10-15T07:09:52;16.30;99.90
18898;DHT22;9581;49.484;8.556;2022-10-15T07:12:19;16.40;99.90
18898;DHT22;9581;49.484;8.556;2022-10-15T07:14:47;16.40;99.90
18898;DHT22;9581;49.484;8.556;2022-10-15T07:17:14;16.40;99.90
18898;DHT22;9581;49.484;8.556;2022-10-15T07:19:41;16.40;99.90
18898;DHT22;9581;49.484;8.556;2022-10-15T07:22:08;16.40;99.90
18898;DHT22;9581;49.484;8.556;2022-10-15T07:24:36;16.40;99.90
18898;DHT22;9581;49.484;8.556;2022-10-15T07:27:03;16.40;99.90
18898;DHT22;9581;49.484;8.556;2022-10-15T07:29:30;16.40;99.90
18898;DHT22;9581;49.484;8.556;2022-10-15T07:31:57;16.30;99.90
18898;DHT22;9581;49.484;8.556;2022-10-15T07:34:24;16.20;99.90
18898;DHT22;9581;49.484;8.556;2022-10-15T07:36:51;16.30;99.90
18898;DHT22;9581;49.484;8.556;2022-10-15T07:39:17;16.30;99.90
18898;DHT22;9581;49.484;8.556;2022-10-15T07:41:45;16.40;99.90
18898;DHT22;9581;49.484;8.556;2022-10-15T07:44:12;16.40;99.90
18898;DHT22;9581;49.484;8.556;2022-10-15T07:46:39;16.40;99.90
18898;DHT22;9581;49.484;8.556;2022-10-15T07:49:06;16.50;99.90
18898;DHT22;9581;49.484;8.556;2022-10-15T07:51:34;16.50;99.90
18898;DHT22;9581;49.484;8.556;2022-10-15T07:54:00;16.50;99.90
18898;DHT22;9581;49.484;8.556;2022-10-15T07:56:27;16.50;99.90
18898;DHT22;9581;49.484;8.556;2022-10-15T07:58:55;16.60;99.90
18898;DHT22;9581;49.484;8.556;2022-10-15T08:01:22;16.60;99.90
18898;DHT22;9581;49.484;8.556;2022-10-15T08:03:49;16.60;99.90
18898;DHT22;9581;49.484;8.556;2022-10-15T08:06:16;16.60;99.90
18898;DHT22;9581;49.484;8.556;2022-10-15T08:08:43;16.60;99.90
18898;DHT22;9581;49.484;8.556;2022-10-15T08:11:12;16.60;99.90
18898;DHT22;9581;49.484;8.556;2022-10-15T08:13:39;16.70;99.90
18898;DHT22;9581;49.484;8.556;2022-10-15T08:16:08;16.70;99.90
18898;DHT22;9581;49.484;8.556;2022-10-15T08:18:35;16.70;99.90
18898;DHT22;9581;49.484;8.556;2022-10-15T08:21:03;16.80;99.90
18898;DHT22;9581;49.484;8.556;2022-10-15T08:23:30;16.80;99.90
18898;DHT22;9581;49.484;8.556;2022-10-15T08:25:57;16.70;99.90
18898;DHT22;9581;49.484;8.556;2022-10-15T08:28:25;16.80;99.90
18898;DHT22;9581;49.484;8.556;2022-10-15T08:30:51;16.80;99.90
18898;DHT22;9581;49.484;8.556;2022-10-15T08:33:19;16.90;99.90
18898;DHT22;9581;49.484;8.556;2022-10-15T08:35:46;16.90;99.90
18898;DHT22;9581;49.484;8.556;2022-10-15T08:38:13;16.90;99.90
18898;DHT22;9581;49.484;8.556;2022-10-15T08:40:40;16.90;99.90
18898;DHT22;9581;49.484;8.556;2022-10-15T08:43:17;16.90;99.90
18898;DHT22;9581;49.484;8.556;2022-10-15T08:45:45;16.90;99.90
18898;DHT22;9581;49.484;8.556;2022-10-15T08:48:18;16.90;99.90
18898;DHT22;9581;49.484;8.556;2022-10-15T08:50:54;16.90;99.90
18898;DHT22;9581;49.484;8.556;2022-10-15T08:53:24;17.00;99.90
18898;DHT22;9581;49.484;8.556;2022-10-15T08:55:55;17.00;99.90
18898;DHT22;9581;49.484;8.556;2022-10-15T08:58:28;16.90;99.90
18898;DHT22;9581;49.484;8.556;2022-10-15T09:01:04;16.90;99.90
18898;DHT22;9581;49.484;8.556;2022-10-15T09:03:37;17.00;99.90
18898;DHT22;9581;49.484;8.556;2022-10-15T09:06:13;17.00;99.90
18898;DHT22;9581;49.484;8.556;2022-10-15T09:08:50;17.00;99.90
18898;DHT22;9581;49.484;8.556;2022-10-15T09:11:26;17.00;99.90
18898;DHT22;9581;49.484;8.556;2022-10-15T09:13:55;17.10;99.90
18898;DHT22;9581;49.484;8.556;2022-10-15T09:16:26;17.10;99.90
18898;DHT22;9581;49.484;8.556;2022-10-15T09:18:55;17.10;99.90
18898;DHT22;9581;49.484;8.556;2022-10-15T09:21:25;17.10;99.90
18898;DHT22;9581;49.484;8.556;2022-10-15T09:23:55;17.00;99.90
18898;DHT22;9581;49.484;8.556;2022-10-15T09:26:28;17.00;99.90
18898;DHT22;9581;49.484;8.556;2022-10-15T09:29:02;17.00;99.90
18898;DHT22;9581;49.484;8.556;2022-10-15T09:31:36;17.00;99.90
18898;DHT22;9581;49.484;8.556;2022-10-15T09:34:10;16.90;99.90
18898;DHT22;9581;49.484;8.556;2022-10-15T09:36:44;16.90;99.90
18898;DHT22;9581;49.484;8.556;2022-10-15T09:39:42;16.80;99.90
18898;DHT22;9581;49.484;8.556;2022-10-15T09:42:19;16.80;99.90
18898;DHT22;9581;49.484;8.556;2022-10-15T09:44:51;16.80;99.90
18898;DHT22;9581;49.484;8.556;2022-10-15T09:47:23;16.80;99.90
18898;DHT22;9581;49.484;8.556;2022-10-15T09:49:51;16.70;99.90
18898;DHT22;9581;49.484;8.556;2022-10-15T09:52:24;16.70;99.90
18898;DHT22;9581;49.484;8.556;2022-10-15T09:55:02;16.60;99.90
18898;DHT22;9581;49.484;8.556;2022-10-15T09:57:35;16.60;99.90
18898;DHT22;9581;49.484;8.556;2022-10-15T10:00:07;16.60;99.90
18898;DHT22;9581;49.484;8.556;2022-10-15T10:02:34;16.70;99.90
18898;DHT22;9581;49.484;8.556;2022-10-15T10:05:23;16.70;99.90
18898;DHT22;9581;49.484;8.556;2022-10-15T10:08:06;16.80;99.90
18898;DHT22;9581;49.484;8.556;2022-10-15T10:10:35;16.90;99.90
18898;DHT22;9581;49.484;8.556;2022-10-15T10:13:06;17.10;99.90
18898;DHT22;9581;49.484;8.556;2022-10-15T10:15:41;17.00;99.90
18898;DHT22;9581;49.484;8.556;2022-10-15T10:18:17;17.10;99.90
18898;DHT22;9581;49.484;8.556;2022-10-15T10:20:53;17.00;99.90
18898;DHT22;9581;49.484;8.556;2022-10-15T10:23:28;16.90;99.90
18898;DHT22;9581;49.484;8.556;2022-10-15T10:25:59;16.90;99.90
18898;DHT22;9581;49.484;8.556;2022-10-15T10:28:30;16.90;99.90
18898;DHT22;9581;49.484;8.556;2022-10-15T10:31:01;17.00;99.90
18898;DHT22;9581;49.484;8.556;2022-10-15T10:33:31;17.10;99.90
18898;DHT22;9581;49.484;8.556;2022-10-15T10:35:58;17.20;99.90
18898;DHT22;9581;49.484;8.556;2022-10-15T10:38:29;17.20;99.90
18898;DHT22;9581;49.484;8.556;2022-10-15T10:40:58;17.30;99.90
18898;DHT22;9581;49.484;8.556;2022-10-15T10:43:30;17.60;99.90
18898;DHT22;9581;49.484;8.556;2022-10-15T10:45:59;17.80;99.90
18898;DHT22;9581;49.484;8.556;2022-10-15T10:48:31;17.80;99.90
18898;DHT22;9581;49.484;8.556;2022-10-15T10:51:11;17.60;99.90
18898;DHT22;9581;49.484;8.556;2022-10-15T10:53:50;17.50;99.90
18898;DHT22;9581;49.484;8.556;2022-10-15T10:56:21;17.50;99.90
18898;DHT22;9581;49.484;8.556;2022-10-15T10:58:54;17.60;99.90
18898;DHT22;9581;49.484;8.556;2022-10-15T11:01:21;17.60;99.90
18898;DHT22;9581;49.484;8.556;2022-10-15T11:03:48;17.70;99.90
18898;DHT22;9581;49.484;8.556;2022-10-15T11:09:18;18.00;99.90
18898;DHT22;9581;49.484;8.556;2022-10-15T11:11:55;18.10;99.90
18898;DHT22;9581;49.484;8.556;2022-10-15T11:14:33;18.00;99.90
18898;DHT22;9581;49.484;8.556;2022-10-15T11:17:11;18.00;99.90
18898;DHT22;9581;49.484;8.556;2022-10-15T11:19:44;17.90;99.90
18898;DHT22;9581;49.484;8.556;2022-10-15T11:22:27;17.90;99.90
18898;DHT22;9581;49.484;8.556;2022-10-15T11:25:03;17.80;99.90
18898;DHT22;9581;49.484;8.556;2022-10-15T11:27:44;17.80;99.90
18898;DHT22;9581;49.484;8.556;2022-10-15T11:30:24;17.80;99.90
18898;DHT22;9581;49.484;8.556;2022-10-15T11:32:57;17.80;99.90
18898;DHT22;9581;49.484;8.556;2022-10-15T11:35:35;17.90;99.90
18898;DHT22;9581;49.484;8.556;2022-10-15T11:38:15;17.90;99.90
18898;DHT22;9581;49.484;8.556;2022-10-15T11:40:55;18.00;99.90
18898;DHT22;9581;49.484;8.556;2022-10-15T11:43:40;18.10;99.90
18898;DHT22;9581;49.484;8.556;2022-10-15T11:46:13;18.00;99.90
18898;DHT22;9581;49.484;8.556;2022-10-15T11:48:51;17.90;99.90
18898;DHT22;9581;49.484;8.556;2022-10-15T11:51:26;17.90;99.90
18898;DHT22;9581;49.484;8.556;2022-10-15T11:54:10;17.90;99.90
18898;DHT22;9581;49.484;8.556;2022-10-15T11:56:42;17.90;99.90
18898;DHT22;9581;49.484;8.556;2022-10-15T11:59:28;17.90;99.90
18898;DHT22;9581;49.484;8.556;2022-10-15T12:01:59;17.90;99.90
18898;DHT22;9581;49.484;8.556;2022-10-15T12:04:31;17.80;99.90
18898;DHT22;9581;49.484;8.556;2022-10-15T12:07:01;17.80;99.90
18898;DHT22;9581;49.484;8.556;2022-10-15T12:09:33;17.90;99.90
18898;DHT22;9581;49.484;8.556;2022-10-15T12:12:05;18.00;99.90
18898;DHT22;9581;49.484;8.556;2022-10-15T12:14:38;18.10;99.90
18898;DHT22;9581;49.484;8.556;2022-10-15T12:17:13;18.00;99.90
18898;DHT22;9581;49.484;8.556;2022-10-15T12:19:45;18.00;99.90
18898;DHT22;9581;49.484;8.556;2022-10-15T12:22:31;17.90;99.90
18898;DHT22;9581;49.484;8.556;2022-10-15T12:24:57;17.80;99.90
18898;DHT22;9581;49.484;8.556;2022-10-15T12:27:29;17.90;99.90
18898;DHT22;9581;49.484;8.556;2022-10-15T12:30:21;17.80;99.90
18898;DHT22;9581;49.484;8.556;2022-10-15T12:32:50;17.80;99.90
18898;DHT22;9581;49.484;8.556;2022-10-15T12:35:36;17.80;99.90
18898;DHT22;9581;49.484;8.556;2022-10-15T12:38:19;17.90;99.90
18898;DHT22;9581;49.484;8.556;2022-10-15T12:40:55;17.80;99.90
18898;DHT22;9581;49.484;8.556;2022-10-15T12:43:23;17.90;99.90
18898;DHT22;9581;49.484;8.556;2022-10-15T12:45:52;18.10;99.90
18898;DHT22;9581;49.484;8.556;2022-10-15T12:48:28;18.00;99.90
18898;DHT22;9581;49.484;8.556;2022-10-15T12:54:37;18.10;99.90
18898;DHT22;9581;49.484;8.556;2022-10-15T13:00:27;17.90;99.90
18898;DHT22;9581;49.484;8.556;2022-10-15T13:02:56;17.80;99.90
18898;DHT22;9581;49.484;8.556;2022-10-15T13:05:28;17.80;99.90
18898;DHT22;9581;49.484;8.556;2022-10-15T13:07:57;17.90;99.90
18898;DHT22;9581;49.484;8.556;2022-10-15T13:10:28;17.80;99.90
18898;DHT22;9581;49.484;8.556;2022-10-15T13:12:57;17.90;99.90
18898;DHT22;9581;49.484;8.556;2022-10-15T13:15:28;17.80;99.90
18898;DHT22;9581;49.484;8.556;2022-10-15T13:17:58;17.80;99.90
18898;DHT22;9581;49.484;8.556;2022-10-15T13:20:31;17.60;99.90
18898;DHT22;9581;49.484;8.556;2022-10-15T13:23:17;17.60;99.90
18898;DHT22;9581;49.484;8.556;2022-10-15T13:25:46;17.70;99.90
18898;DHT22;9581;49.484;8.556;2022-10-15T13:28:29;17.70;99.90
18898;DHT22;9581;49.484;8.556;2022-10-15T13:30:57;17.70;99.90
18898;DHT22;9581;49.484;8.556;2022-10-15T13:33:25;17.70;99.90
18898;DHT22;9581;49.484;8.556;2022-10-15T13:35:52;17.90;99.90
18898;DHT22;9581;49.484;8.556;2022-10-15T13:38:21;17.80;99.90
18898;DHT22;9581;49.484;8.556;2022-10-15T13:40:49;17.90;99.90
18898;DHT22;9581;49.484;8.556;2022-10-15T13:43:18;17.80;99.90
18898;DHT22;9581;49.484;8.556;2022-10-15T13:45:46;17.80;99.90
18898;DHT22;9581;49.484;8.556;2022-10-15T13:48:20;17.90;99.90
18898;DHT22;9581;49.484;8.556;2022-10-15T13:50:49;17.80;99.90
18898;DHT22;9581;49.484;8.556;2022-10-15T13:53:22;17.80;99.90
18898;DHT22;9581;49.484;8.556;2022-10-15T13:55:54;17.90;99.90
18898;DHT22;9581;49.484;8.556;2022-10-15T13:58:23;18.00;99.90
18898;DHT22;9581;49.484;8.556;2022-10-15T14:00:54;17.80;99.90
18898;DHT22;9581;49.484;8.556;2022-10-15T14:03:25;17.80;99.90
18898;DHT22;9581;49.484;8.556;2022-10-15T14:05:53;17.70;99.90
18898;DHT22;9581;49.484;8.556;2022-10-15T14:08:24;17.70;99.90
18898;DHT22;9581;49.484;8.556;2022-10-15T14:10:52;17.70;99.90
18898;DHT22;9581;49.484;8.556;2022-10-15T14:13:19;17.50;99.90
18898;DHT22;9581;49.484;8.556;2022-10-15T14:15:51;17.40;99.90
18898;DHT22;9581;49.484;8.556;2022-10-15T14:18:31;17.40;99.90
18898;DHT22;9581;49.484;8.556;2022-10-15T14:21:00;17.40;99.90
18898;DHT22;9581;49.484;8.556;2022-10-15T14:23:27;17.50;99.90
18898;DHT22;9581;49.484;8.556;2022-10-15T14:25:56;17.40;99.90
18898;DHT22;9581;49.484;8.556;2022-10-15T14:28:25;17.50;99.90
18898;DHT22;9581;49.484;8.556;2022-10-15T14:30:53;17.70;99.90
18898;DHT22;9581;49.484;8.556;2022-10-15T14:33:40;17.80;99.90
18898;DHT22;9581;49.484;8.556;2022-10-15T14:36:20;17.70;99.90
18898;DHT22;9581;49.484;8.556;2022-10-15T14:38:48;17.80;99.90
18898;DHT22;9581;49.484;8.556;2022-10-15T14:41:34;17.80;99.90
18898;DHT22;9581;49.484;8.556;2022-10-15T14:44:05;17.80;99.90
18898;DHT22;9581;49.484;8.556;2022-10-15T14:46:36;17.60;99.90
18898;DHT22;9581;49.484;8.556;2022-10-15T14:49:21;17.60;99.90
18898;DHT22;9581;49.484;8.556;2022-10-15T14:51:58;17.60;99.90
18898;DHT22;9581;49.484;8.556;2022-10-15T14:54:32;17.60;99.90
18898;DHT22;9581;49.484;8.556;2022-10-15T14:57:00;17.50;99.90
18898;DHT22;9581;49.484;8.556;2022-10-15T14:59:30;17.50;99.90
18898;DHT22;9581;49.484;8.556;2022-10-15T15:01:59;17.50;99.90
18898;DHT22;9581;49.484;8.556;2022-10-15T15:04:40;17.50;99.90
18898;DHT22;9581;49.484;8.556;2022-10-15T15:07:15;17.50;99.90
18898;DHT22;9581;49.484;8.556;2022-10-15T15:09:46;17.60;99.90
18898;DHT22;9581;49.484;8.556;2022-10-15T15:12:16;17.60;99.90
18898;DHT22;9581;49.484;8.556;2022-10-15T15:14:43;17.50;99.90
18898;DHT22;9581;49.484;8.556;2022-10-15T15:17:14;17.50;99.90
18898;DHT22;9581;49.484;8.556;2022-10-15T15:19:43;17.50;99.90
18898;DHT22;9581;49.484;8.556;2022-10-15T15:22:12;17.40;99.90
18898;DHT22;9581;49.484;8.556;2022-10-15T15:24:39;17.30;99.90
18898;DHT22;9581;49.484;8.556;2022-10-15T15:27:08;17.30;99.90
18898;DHT22;9581;49.484;8.556;2022-10-15T15:29:37;17.40;99.90
18898;DHT22;9581;49.484;8.556;2022-10-15T15:32:04;17.40;99.90
18898;DHT22;9581;49.484;8.556;2022-10-15T15:34:31;17.40;99.90
18898;DHT22;9581;49.484;8.556;2022-10-15T15:37:00;17.30;99.90
18898;DHT22;9581;49.484;8.556;2022-10-15T15:39:26;17.30;99.90
18898;DHT22;9581;49.484;8.556;2022-10-15T15:41:53;17.30;99.90
18898;DHT22;9581;49.484;8.556;2022-10-15T15:44:20;17.30;99.90
18898;DHT22;9581;49.484;8.556;2022-10-15T15:46:47;17.40;99.90
18898;DHT22;9581;49.484;8.556;2022-10-15T15:49:19;17.40;99.90
18898;DHT22;9581;49.484;8.556;2022-10-15T15:51:46;17.40;99.90
18898;DHT22;9581;49.484;8.556;2022-10-15T15:54:14;17.40;99.90
18898;DHT22;9581;49.484;8.556;2022-10-15T15:56:41;17.30;99.90
18898;DHT22;9581;49.484;8.556;2022-10-15T15:59:07;17.30;99.90
18898;DHT22;9581;49.484;8.556;2022-10-15T16:01:34;17.40;99.90
18898;DHT22;9581;49.484;8.556;2022-10-15T16:04:01;17.30;99.90
18898;DHT22;9581;49.484;8.556;2022-10-15T16:06:27;17.40;99.90
18898;DHT22;9581;49.484;8.556;2022-10-15T16:08:54;17.30;99.90
18898;DHT22;9581;49.484;8.556;2022-10-15T16:11:25;17.30;99.90
18898;DHT22;9581;49.484;8.556;2022-10-15T16:13:51;17.30;99.90
18898;DHT22;9581;49.484;8.556;2022-10-15T16:16:18;17.30;99.90